sensor_id;sensor_type;location;lat;lon;timestamp;P1;durP1;ratioP1;P2;durP2;ratioP2
40951;SDS011;26682;51.660;19.338;2023-01-09T00:02:38;72.97;;;41.45;;
40951;SDS011;26682;51.660;19.338;2023-01-09T00:04:26;70.75;;;41.47;;
40951;SDS011;26682;51.660;19.338;2023-01-09T00:06:13;75.40;;;42.97;;
40951;SDS011;26682;51.660;19.338;2023-01-09T00:08:00;68.95;;;42.22;;
40951;SDS011;26682;51.660;19.338;2023-01-09T00:09:48;73.32;;;41.97;;
40951;SDS011;26682;51.660;19.338;2023-01-09T00:11:36;65.57;;;39.88;;
40951;SDS011;26682;51.660;19.338;2023-01-09T00:13:23;67.10;;;40.47;;
40951;SDS011;26682;51.660;19.338;2023-01-09T00:15:10;65.93;;;40.05;;
40951;SDS011;26682;51.660;19.338;2023-01-09T00:16:58;64.40;;;38.72;;
40951;SDS011;26682;51.660;19.338;2023-01-09T00:18:45;67.03;;;39.92;;
40951;SDS011;26682;51.660;19.338;2023-01-09T00:20:32;69.82;;;40.33;;
40951;SDS011;26682;51.660;19.338;2023-01-09T00:22:21;71.18;;;40.72;;
40951;SDS011;26682;51.660;19.338;2023-01-09T00:24:08;71.55;;;41.85;;
40951;SDS011;26682;51.660;19.338;2023-01-09T00:26:05;68.25;;;40.42;;
40951;SDS011;26682;51.660;19.338;2023-01-09T00:27:57;74.32;;;40.92;;
40951;SDS011;26682;51.660;19.338;2023-01-09T00:29:44;67.47;;;40.60;;
40951;SDS011;26682;51.660;19.338;2023-01-09T00:31:33;65.88;;;40.00;;
40951;SDS011;26682;51.660;19.338;2023-01-09T00:33:21;62.58;;;39.58;;
40951;SDS011;26682;51.660;19.338;2023-01-09T00:35:20;62.47;;;38.05;;
40951;SDS011;26682;51.660;19.338;2023-01-09T00:37:09;58.28;;;37.55;;
40951;SDS011;26682;51.660;19.338;2023-01-09T00:38:59;56.03;;;37.38;;
40951;SDS011;26682;51.660;19.338;2023-01-09T00:40:47;57.58;;;36.80;;
40951;SDS011;26682;51.660;19.338;2023-01-09T00:42:34;58.20;;;36.80;;
40951;SDS011;26682;51.660;19.338;2023-01-09T00:44:27;60.97;;;37.78;;
40951;SDS011;26682;51.660;19.338;2023-01-09T00:46:18;55.35;;;35.70;;
40951;SDS011;26682;51.660;19.338;2023-01-09T00:48:12;54.85;;;34.83;;
40951;SDS011;26682;51.660;19.338;2023-01-09T00:50:04;54.70;;;34.67;;
40951;SDS011;26682;51.660;19.338;2023-01-09T00:51:54;52.55;;;35.42;;
40951;SDS011;26682;51.660;19.338;2023-01-09T00:53:41;55.70;;;36.28;;
40951;SDS011;26682;51.660;19.338;2023-01-09T00:55:29;52.80;;;35.17;;
40951;SDS011;26682;51.660;19.338;2023-01-09T00:57:16;54.15;;;35.75;;
40951;SDS011;26682;51.660;19.338;2023-01-09T00:59:04;53.70;;;34.53;;
40951;SDS011;26682;51.660;19.338;2023-01-09T01:00:53;49.38;;;34.42;;
40951;SDS011;26682;51.660;19.338;2023-01-09T01:02:40;50.25;;;32.88;;
40951;SDS011;26682;51.660;19.338;2023-01-09T01:04:27;48.30;;;32.22;;
40951;SDS011;26682;51.660;19.338;2023-01-09T01:06:44;53.17;;;34.40;;
40951;SDS011;26682;51.660;19.338;2023-01-09T01:08:49;51.53;;;32.70;;
40951;SDS011;26682;51.660;19.338;2023-01-09T01:10:36;45.15;;;31.27;;
40951;SDS011;26682;51.660;19.338;2023-01-09T01:12:24;43.05;;;30.35;;
40951;SDS011;26682;51.660;19.338;2023-01-09T01:14:11;42.28;;;30.88;;
40951;SDS011;26682;51.660;19.338;2023-01-09T01:15:58;43.03;;;30.25;;
40951;SDS011;26682;51.660;19.338;2023-01-09T01:19:33;42.20;;;29.17;;
40951;SDS011;26682;51.660;19.338;2023-01-09T01:21:21;43.58;;;29.58;;
40951;SDS011;26682;51.660;19.338;2023-01-09T01:23:09;43.50;;;29.67;;
40951;SDS011;26682;51.660;19.338;2023-01-09T01:24:56;41.05;;;29.00;;
40951;SDS011;26682;51.660;19.338;2023-01-09T01:26:43;46.10;;;29.35;;
40951;SDS011;26682;51.660;19.338;2023-01-09T01:28:31;42.00;;;29.92;;
40951;SDS011;26682;51.660;19.338;2023-01-09T01:30:18;42.05;;;29.38;;
40951;SDS011;26682;51.660;19.338;2023-01-09T01:32:06;42.33;;;29.02;;
40951;SDS011;26682;51.660;19.338;2023-01-09T01:33:53;38.15;;;28.83;;
40951;SDS011;26682;51.660;19.338;2023-01-09T01:35:40;41.05;;;29.17;;
40951;SDS011;26682;51.660;19.338;2023-01-09T01:37:27;42.47;;;29.02;;
40951;SDS011;26682;51.660;19.338;2023-01-09T01:39:15;40.45;;;28.20;;
40951;SDS011;26682;51.660;19.338;2023-01-09T01:41:03;44.22;;;28.50;;
40951;SDS011;26682;51.660;19.338;2023-01-09T01:42:52;42.88;;;29.08;;
40951;SDS011;26682;51.660;19.338;2023-01-09T01:46:44;44.03;;;29.13;;
40951;SDS011;26682;51.660;19.338;2023-01-09T01:48:31;43.67;;;30.65;;
40951;SDS011;26682;51.660;19.338;2023-01-09T01:52:12;43.25;;;29.75;;
40951;SDS011;26682;51.660;19.338;2023-01-09T01:54:02;43.50;;;29.98;;
40951;SDS011;26682;51.660;19.338;2023-01-09T01:57:43;47.75;;;29.42;;
40951;SDS011;26682;51.660;19.338;2023-01-09T01:59:36;46.90;;;30.08;;
40951;SDS011;26682;51.660;19.338;2023-01-09T02:01:24;47.33;;;30.25;;
40951;SDS011;26682;51.660;19.338;2023-01-09T02:03:13;42.33;;;29.95;;
40951;SDS011;26682;51.660;19.338;2023-01-09T02:05:03;42.33;;;28.42;;
40951;SDS011;26682;51.660;19.338;2023-01-09T02:06:51;44.35;;;29.40;;
40951;SDS011;26682;51.660;19.338;2023-01-09T02:08:40;42.15;;;29.10;;
40951;SDS011;26682;51.660;19.338;2023-01-09T02:10:28;42.13;;;29.13;;
40951;SDS011;26682;51.660;19.338;2023-01-09T02:12:20;43.13;;;28.80;;
40951;SDS011;26682;51.660;19.338;2023-01-09T02:14:09;44.22;;;30.05;;
40951;SDS011;26682;51.660;19.338;2023-01-09T02:20:11;40.58;;;27.92;;
40951;SDS011;26682;51.660;19.338;2023-01-09T02:22:18;41.90;;;28.65;;
40951;SDS011;26682;51.660;19.338;2023-01-09T02:24:43;39.08;;;27.63;;
40951;SDS011;26682;51.660;19.338;2023-01-09T02:26:47;41.60;;;28.85;;
40951;SDS011;26682;51.660;19.338;2023-01-09T02:30:51;42.40;;;28.20;;
40951;SDS011;26682;51.660;19.338;2023-01-09T02:34:57;40.97;;;27.92;;
40951;SDS011;26682;51.660;19.338;2023-01-09T02:41:19;43.95;;;30.05;;
40951;SDS011;26682;51.660;19.338;2023-01-09T02:43:16;46.67;;;29.73;;
40951;SDS011;26682;51.660;19.338;2023-01-09T02:45:04;42.05;;;29.17;;
40951;SDS011;26682;51.660;19.338;2023-01-09T02:47:01;43.65;;;29.25;;
40951;SDS011;26682;51.660;19.338;2023-01-09T02:50:42;44.28;;;28.40;;
40951;SDS011;26682;51.660;19.338;2023-01-09T02:56:43;44.20;;;30.48;;
40951;SDS011;26682;51.660;19.338;2023-01-09T02:58:59;45.22;;;29.88;;
40951;SDS011;26682;51.660;19.338;2023-01-09T03:04:54;44.50;;;29.42;;
40951;SDS011;26682;51.660;19.338;2023-01-09T03:07:10;46.20;;;29.90;;
40951;SDS011;26682;51.660;19.338;2023-01-09T03:09:12;44.63;;;29.45;;
40951;SDS011;26682;51.660;19.338;2023-01-09T03:11:03;47.83;;;30.85;;
40951;SDS011;26682;51.660;19.338;2023-01-09T03:12:53;47.80;;;30.55;;
40951;SDS011;26682;51.660;19.338;2023-01-09T03:14:45;47.40;;;31.08;;
40951;SDS011;26682;51.660;19.338;2023-01-09T03:16:36;52.55;;;32.25;;
40951;SDS011;26682;51.660;19.338;2023-01-09T03:18:24;59.85;;;32.55;;
40951;SDS011;26682;51.660;19.338;2023-01-09T03:20:16;50.95;;;33.05;;
40951;SDS011;26682;51.660;19.338;2023-01-09T03:22:07;47.90;;;32.83;;
40951;SDS011;26682;51.660;19.338;2023-01-09T03:23:56;50.60;;;33.75;;
40951;SDS011;26682;51.660;19.338;2023-01-09T03:25:45;48.03;;;31.67;;
40951;SDS011;26682;51.660;19.338;2023-01-09T03:27:32;47.80;;;31.95;;
40951;SDS011;26682;51.660;19.338;2023-01-09T03:29:20;52.20;;;32.03;;
40951;SDS011;26682;51.660;19.338;2023-01-09T03:31:07;46.63;;;31.95;;
40951;SDS011;26682;51.660;19.338;2023-01-09T03:32:55;49.58;;;32.80;;
40951;SDS011;26682;51.660;19.338;2023-01-09T03:34:43;51.10;;;32.95;;
40951;SDS011;26682;51.660;19.338;2023-01-09T03:36:30;50.92;;;32.67;;
40951;SDS011;26682;51.660;19.338;2023-01-09T03:38:17;52.47;;;32.65;;
40951;SDS011;26682;51.660;19.338;2023-01-09T03:40:05;52.30;;;32.97;;
40951;SDS011;26682;51.660;19.338;2023-01-09T03:41:53;52.60;;;32.85;;
40951;SDS011;26682;51.660;19.338;2023-01-09T03:43:40;55.03;;;33.53;;
40951;SDS011;26682;51.660;19.338;2023-01-09T03:45:27;53.38;;;34.28;;
40951;SDS011;26682;51.660;19.338;2023-01-09T03:47:14;51.92;;;34.38;;
40951;SDS011;26682;51.660;19.338;2023-01-09T03:49:01;48.73;;;32.83;;
40951;SDS011;26682;51.660;19.338;2023-01-09T03:50:49;55.45;;;36.08;;
40951;SDS011;26682;51.660;19.338;2023-01-09T03:52:38;58.05;;;35.08;;
40951;SDS011;26682;51.660;19.338;2023-01-09T03:54:25;57.70;;;36.45;;
40951;SDS011;26682;51.660;19.338;2023-01-09T03:56:12;55.78;;;36.20;;
40951;SDS011;26682;51.660;19.338;2023-01-09T03:59:47;59.45;;;35.13;;
40951;SDS011;26682;51.660;19.338;2023-01-09T04:01:35;55.85;;;34.92;;
40951;SDS011;26682;51.660;19.338;2023-01-09T04:03:22;58.70;;;36.55;;
40951;SDS011;26682;51.660;19.338;2023-01-09T04:05:09;56.17;;;35.90;;
40951;SDS011;26682;51.660;19.338;2023-01-09T04:06:57;54.90;;;35.75;;
40951;SDS011;26682;51.660;19.338;2023-01-09T04:08:44;58.80;;;36.22;;
40951;SDS011;26682;51.660;19.338;2023-01-09T04:10:32;60.58;;;37.28;;
40951;SDS011;26682;51.660;19.338;2023-01-09T04:12:19;54.20;;;35.05;;
40951;SDS011;26682;51.660;19.338;2023-01-09T04:14:06;56.80;;;36.70;;
40951;SDS011;26682;51.660;19.338;2023-01-09T04:15:56;65.13;;;38.35;;
40951;SDS011;26682;51.660;19.338;2023-01-09T04:17:43;61.40;;;37.88;;
40951;SDS011;26682;51.660;19.338;2023-01-09T04:19:30;56.55;;;37.00;;
40951;SDS011;26682;51.660;19.338;2023-01-09T04:21:18;59.95;;;37.53;;
40951;SDS011;26682;51.660;19.338;2023-01-09T04:23:05;57.78;;;37.58;;
40951;SDS011;26682;51.660;19.338;2023-01-09T04:24:52;59.42;;;37.90;;
40951;SDS011;26682;51.660;19.338;2023-01-09T04:26:40;64.53;;;41.78;;
40951;SDS011;26682;51.660;19.338;2023-01-09T04:28:27;64.07;;;39.88;;
40951;SDS011;26682;51.660;19.338;2023-01-09T04:30:14;65.95;;;40.85;;
40951;SDS011;26682;51.660;19.338;2023-01-09T04:32:02;60.67;;;40.42;;
40951;SDS011;26682;51.660;19.338;2023-01-09T04:33:50;64.95;;;40.17;;
40951;SDS011;26682;51.660;19.338;2023-01-09T04:35:37;64.80;;;40.35;;
40951;SDS011;26682;51.660;19.338;2023-01-09T04:37:24;47.78;;;29.17;;
40951;SDS011;26682;51.660;19.338;2023-01-09T04:39:11;61.00;;;38.42;;
40951;SDS011;26682;51.660;19.338;2023-01-09T04:40:58;65.63;;;40.67;;
40951;SDS011;26682;51.660;19.338;2023-01-09T04:42:45;60.53;;;39.92;;
40951;SDS011;26682;51.660;19.338;2023-01-09T04:44:33;66.35;;;39.35;;
40951;SDS011;26682;51.660;19.338;2023-01-09T04:46:20;61.53;;;38.57;;
40951;SDS011;26682;51.660;19.338;2023-01-09T04:48:07;61.67;;;38.13;;
40951;SDS011;26682;51.660;19.338;2023-01-09T04:49:54;63.75;;;38.78;;
40951;SDS011;26682;51.660;19.338;2023-01-09T04:51:42;59.60;;;37.73;;
40951;SDS011;26682;51.660;19.338;2023-01-09T04:53:29;62.67;;;40.00;;
40951;SDS011;26682;51.660;19.338;2023-01-09T04:55:16;64.38;;;39.85;;
40951;SDS011;26682;51.660;19.338;2023-01-09T04:57:03;57.88;;;38.72;;
40951;SDS011;26682;51.660;19.338;2023-01-09T04:58:51;63.97;;;40.60;;
40951;SDS011;26682;51.660;19.338;2023-01-09T05:00:38;63.80;;;39.28;;
40951;SDS011;26682;51.660;19.338;2023-01-09T05:02:25;61.28;;;40.55;;
40951;SDS011;26682;51.660;19.338;2023-01-09T05:04:12;63.83;;;41.25;;
40951;SDS011;26682;51.660;19.338;2023-01-09T05:06:00;66.90;;;40.15;;
40951;SDS011;26682;51.660;19.338;2023-01-09T05:07:47;62.45;;;39.70;;
40951;SDS011;26682;51.660;19.338;2023-01-09T05:09:34;62.20;;;39.95;;
40951;SDS011;26682;51.660;19.338;2023-01-09T05:11:22;68.22;;;41.50;;
40951;SDS011;26682;51.660;19.338;2023-01-09T05:13:11;65.97;;;41.13;;
40951;SDS011;26682;51.660;19.338;2023-01-09T05:14:58;72.15;;;44.15;;
40951;SDS011;26682;51.660;19.338;2023-01-09T05:16:45;64.53;;;41.20;;
40951;SDS011;26682;51.660;19.338;2023-01-09T05:18:32;67.47;;;41.60;;
40951;SDS011;26682;51.660;19.338;2023-01-09T05:20:20;64.00;;;41.55;;
40951;SDS011;26682;51.660;19.338;2023-01-09T05:22:07;65.18;;;40.85;;
40951;SDS011;26682;51.660;19.338;2023-01-09T05:23:54;69.18;;;42.17;;
40951;SDS011;26682;51.660;19.338;2023-01-09T05:25:42;68.43;;;43.20;;
40951;SDS011;26682;51.660;19.338;2023-01-09T05:27:29;65.22;;;42.47;;
40951;SDS011;26682;51.660;19.338;2023-01-09T05:29:16;73.18;;;43.65;;
40951;SDS011;26682;51.660;19.338;2023-01-09T05:31:04;62.80;;;40.80;;
40951;SDS011;26682;51.660;19.338;2023-01-09T05:32:51;66.85;;;41.22;;
40951;SDS011;26682;51.660;19.338;2023-01-09T05:34:39;68.32;;;42.08;;
40951;SDS011;26682;51.660;19.338;2023-01-09T05:36:26;71.10;;;42.97;;
40951;SDS011;26682;51.660;19.338;2023-01-09T05:40:01;67.53;;;41.13;;
40951;SDS011;26682;51.660;19.338;2023-01-09T05:45:23;66.03;;;39.83;;
40951;SDS011;26682;51.660;19.338;2023-01-09T05:47:12;70.80;;;41.97;;
40951;SDS011;26682;51.660;19.338;2023-01-09T05:49:00;69.60;;;43.15;;
40951;SDS011;26682;51.660;19.338;2023-01-09T05:50:47;73.65;;;43.17;;
40951;SDS011;26682;51.660;19.338;2023-01-09T05:52:35;69.22;;;41.80;;
40951;SDS011;26682;51.660;19.338;2023-01-09T05:54:23;70.30;;;44.22;;
40951;SDS011;26682;51.660;19.338;2023-01-09T05:56:10;70.63;;;44.17;;
40951;SDS011;26682;51.660;19.338;2023-01-09T05:57:58;71.43;;;43.53;;
40951;SDS011;26682;51.660;19.338;2023-01-09T06:01:33;69.88;;;41.60;;
40951;SDS011;26682;51.660;19.338;2023-01-09T06:03:21;71.07;;;43.40;;
40951;SDS011;26682;51.660;19.338;2023-01-09T06:05:10;66.15;;;41.20;;
40951;SDS011;26682;51.660;19.338;2023-01-09T06:06:58;71.00;;;42.85;;
40951;SDS011;26682;51.660;19.338;2023-01-09T06:08:45;71.13;;;42.58;;
40951;SDS011;26682;51.660;19.338;2023-01-09T06:10:32;71.88;;;42.65;;
40951;SDS011;26682;51.660;19.338;2023-01-09T06:12:19;69.45;;;43.17;;
40951;SDS011;26682;51.660;19.338;2023-01-09T06:14:06;65.70;;;42.10;;
40951;SDS011;26682;51.660;19.338;2023-01-09T06:15:54;67.50;;;42.17;;
40951;SDS011;26682;51.660;19.338;2023-01-09T06:17:41;70.30;;;42.63;;
40951;SDS011;26682;51.660;19.338;2023-01-09T06:19:29;72.35;;;43.25;;
40951;SDS011;26682;51.660;19.338;2023-01-09T06:21:17;71.78;;;44.00;;
40951;SDS011;26682;51.660;19.338;2023-01-09T06:23:04;69.05;;;42.95;;
40951;SDS011;26682;51.660;19.338;2023-01-09T06:24:51;65.63;;;42.08;;
40951;SDS011;26682;51.660;19.338;2023-01-09T06:26:39;66.53;;;43.15;;
40951;SDS011;26682;51.660;19.338;2023-01-09T06:28:26;68.82;;;43.45;;
40951;SDS011;26682;51.660;19.338;2023-01-09T06:30:14;70.80;;;43.47;;
40951;SDS011;26682;51.660;19.338;2023-01-09T06:32:01;70.15;;;43.38;;
40951;SDS011;26682;51.660;19.338;2023-01-09T06:33:48;70.57;;;44.15;;
40951;SDS011;26682;51.660;19.338;2023-01-09T06:35:36;74.57;;;45.70;;
40951;SDS011;26682;51.660;19.338;2023-01-09T06:37:23;69.47;;;43.97;;
40951;SDS011;26682;51.660;19.338;2023-01-09T06:39:11;68.57;;;43.95;;
40951;SDS011;26682;51.660;19.338;2023-01-09T06:40:59;73.35;;;44.55;;
40951;SDS011;26682;51.660;19.338;2023-01-09T06:44:35;69.80;;;41.97;;
40951;SDS011;26682;51.660;19.338;2023-01-09T06:46:22;69.32;;;42.65;;
40951;SDS011;26682;51.660;19.338;2023-01-09T06:48:10;71.22;;;43.38;;
40951;SDS011;26682;51.660;19.338;2023-01-09T06:49:58;66.47;;;42.33;;
40951;SDS011;26682;51.660;19.338;2023-01-09T06:51:45;67.85;;;43.28;;
40951;SDS011;26682;51.660;19.338;2023-01-09T06:53:32;65.22;;;41.53;;
40951;SDS011;26682;51.660;19.338;2023-01-09T06:57:07;69.65;;;42.10;;
40951;SDS011;26682;51.660;19.338;2023-01-09T06:58:55;69.28;;;42.53;;
40951;SDS011;26682;51.660;19.338;2023-01-09T07:00:42;66.38;;;42.33;;
40951;SDS011;26682;51.660;19.338;2023-01-09T07:02:30;73.05;;;43.58;;
40951;SDS011;26682;51.660;19.338;2023-01-09T07:04:18;68.70;;;44.50;;
40951;SDS011;26682;51.660;19.338;2023-01-09T07:06:07;65.97;;;42.53;;
40951;SDS011;26682;51.660;19.338;2023-01-09T07:09:42;75.45;;;44.65;;
40951;SDS011;26682;51.660;19.338;2023-01-09T07:11:30;69.07;;;44.97;;
40951;SDS011;26682;51.660;19.338;2023-01-09T07:13:17;66.22;;;42.97;;
40951;SDS011;26682;51.660;19.338;2023-01-09T07:15:05;69.85;;;44.15;;
40951;SDS011;26682;51.660;19.338;2023-01-09T07:16:53;66.68;;;42.95;;
40951;SDS011;26682;51.660;19.338;2023-01-09T07:18:40;68.15;;;44.28;;
40951;SDS011;26682;51.660;19.338;2023-01-09T07:20:28;66.57;;;43.25;;
40951;SDS011;26682;51.660;19.338;2023-01-09T07:22:16;66.20;;;41.67;;
40951;SDS011;26682;51.660;19.338;2023-01-09T07:24:03;68.93;;;43.35;;
40951;SDS011;26682;51.660;19.338;2023-01-09T07:27:38;82.28;;;47.22;;
40951;SDS011;26682;51.660;19.338;2023-01-09T07:29:25;92.63;;;56.10;;
40951;SDS011;26682;51.660;19.338;2023-01-09T07:31:13;85.75;;;54.67;;
40951;SDS011;26682;51.660;19.338;2023-01-09T07:33:00;75.63;;;50.85;;
40951;SDS011;26682;51.660;19.338;2023-01-09T07:34:49;80.90;;;49.83;;
40951;SDS011;26682;51.660;19.338;2023-01-09T07:36:37;79.00;;;49.22;;
40951;SDS011;26682;51.660;19.338;2023-01-09T07:38:25;77.25;;;48.13;;
40951;SDS011;26682;51.660;19.338;2023-01-09T07:40:12;72.07;;;45.22;;
40951;SDS011;26682;51.660;19.338;2023-01-09T07:42:00;68.70;;;45.03;;
40951;SDS011;26682;51.660;19.338;2023-01-09T07:43:47;75.70;;;46.55;;
40951;SDS011;26682;51.660;19.338;2023-01-09T07:45:34;65.70;;;42.80;;
40951;SDS011;26682;51.660;19.338;2023-01-09T07:47:22;69.25;;;44.83;;
40951;SDS011;26682;51.660;19.338;2023-01-09T07:49:09;70.78;;;45.33;;
40951;SDS011;26682;51.660;19.338;2023-01-09T07:50:57;66.40;;;44.28;;
40951;SDS011;26682;51.660;19.338;2023-01-09T07:52:45;67.82;;;44.45;;
40951;SDS011;26682;51.660;19.338;2023-01-09T07:54:32;66.07;;;44.70;;
40951;SDS011;26682;51.660;19.338;2023-01-09T07:56:19;67.78;;;44.30;;
40951;SDS011;26682;51.660;19.338;2023-01-09T07:58:07;67.20;;;43.20;;
40951;SDS011;26682;51.660;19.338;2023-01-09T07:59:57;64.57;;;43.15;;
40951;SDS011;26682;51.660;19.338;2023-01-09T08:01:57;62.85;;;42.20;;
40951;SDS011;26682;51.660;19.338;2023-01-09T08:03:44;65.30;;;41.90;;
40951;SDS011;26682;51.660;19.338;2023-01-09T08:05:32;67.85;;;43.88;;
40951;SDS011;26682;51.660;19.338;2023-01-09T08:07:19;66.68;;;44.22;;
40951;SDS011;26682;51.660;19.338;2023-01-09T08:09:06;68.70;;;44.42;;
40951;SDS011;26682;51.660;19.338;2023-01-09T08:10:54;64.05;;;43.00;;
40951;SDS011;26682;51.660;19.338;2023-01-09T08:14:29;58.60;;;40.30;;
40951;SDS011;26682;51.660;19.338;2023-01-09T08:16:17;62.38;;;40.95;;
40951;SDS011;26682;51.660;19.338;2023-01-09T08:18:04;59.95;;;39.90;;
40951;SDS011;26682;51.660;19.338;2023-01-09T08:19:51;60.88;;;40.72;;
40951;SDS011;26682;51.660;19.338;2023-01-09T08:21:39;55.67;;;38.20;;
40951;SDS011;26682;51.660;19.338;2023-01-09T08:23:27;57.75;;;39.17;;
40951;SDS011;26682;51.660;19.338;2023-01-09T08:25:17;57.33;;;37.88;;
40951;SDS011;26682;51.660;19.338;2023-01-09T08:27:05;55.88;;;38.80;;
40951;SDS011;26682;51.660;19.338;2023-01-09T08:28:52;56.92;;;38.05;;
40951;SDS011;26682;51.660;19.338;2023-01-09T08:30:40;53.92;;;37.75;;
40951;SDS011;26682;51.660;19.338;2023-01-09T08:32:29;54.08;;;37.25;;
40951;SDS011;26682;51.660;19.338;2023-01-09T08:34:18;51.92;;;36.90;;
40951;SDS011;26682;51.660;19.338;2023-01-09T08:36:11;54.78;;;36.75;;
40951;SDS011;26682;51.660;19.338;2023-01-09T08:38:01;55.92;;;37.42;;
40951;SDS011;26682;51.660;19.338;2023-01-09T08:39:49;54.05;;;37.35;;
40951;SDS011;26682;51.660;19.338;2023-01-09T08:41:36;54.63;;;36.78;;
40951;SDS011;26682;51.660;19.338;2023-01-09T08:43:42;53.28;;;37.55;;
40951;SDS011;26682;51.660;19.338;2023-01-09T08:45:49;53.53;;;36.75;;
40951;SDS011;26682;51.660;19.338;2023-01-09T08:47:55;51.15;;;36.35;;
40951;SDS011;26682;51.660;19.338;2023-01-09T08:51:30;55.50;;;34.20;;
40951;SDS011;26682;51.660;19.338;2023-01-09T08:53:18;53.88;;;36.38;;
40951;SDS011;26682;51.660;19.338;2023-01-09T08:55:06;53.17;;;36.53;;
40951;SDS011;26682;51.660;19.338;2023-01-09T08:56:53;53.22;;;36.65;;
40951;SDS011;26682;51.660;19.338;2023-01-09T08:58:41;56.90;;;38.20;;
40951;SDS011;26682;51.660;19.338;2023-01-09T09:00:29;56.95;;;37.47;;
40951;SDS011;26682;51.660;19.338;2023-01-09T09:02:17;51.08;;;36.17;;
40951;SDS011;26682;51.660;19.338;2023-01-09T09:04:04;53.40;;;35.97;;
40951;SDS011;26682;51.660;19.338;2023-01-09T09:05:51;56.05;;;38.75;;
40951;SDS011;26682;51.660;19.338;2023-01-09T09:07:39;53.92;;;37.80;;
40951;SDS011;26682;51.660;19.338;2023-01-09T09:09:27;53.03;;;36.30;;
40951;SDS011;26682;51.660;19.338;2023-01-09T09:11:15;50.85;;;36.65;;
40951;SDS011;26682;51.660;19.338;2023-01-09T09:13:02;55.92;;;35.50;;
40951;SDS011;26682;51.660;19.338;2023-01-09T09:14:50;50.92;;;36.60;;
40951;SDS011;26682;51.660;19.338;2023-01-09T09:16:56;52.85;;;34.95;;
40951;SDS011;26682;51.660;19.338;2023-01-09T09:18:43;50.80;;;36.15;;
40951;SDS011;26682;51.660;19.338;2023-01-09T09:20:31;53.83;;;36.90;;
40951;SDS011;26682;51.660;19.338;2023-01-09T09:22:24;53.38;;;37.58;;
40951;SDS011;26682;51.660;19.338;2023-01-09T09:24:12;49.45;;;36.10;;
40951;SDS011;26682;51.660;19.338;2023-01-09T09:26:00;55.83;;;37.53;;
40951;SDS011;26682;51.660;19.338;2023-01-09T09:27:47;53.42;;;37.75;;
40951;SDS011;26682;51.660;19.338;2023-01-09T09:29:36;50.15;;;35.72;;
40951;SDS011;26682;51.660;19.338;2023-01-09T09:31:23;48.85;;;35.60;;
40951;SDS011;26682;51.660;19.338;2023-01-09T09:33:10;49.70;;;36.00;;
40951;SDS011;26682;51.660;19.338;2023-01-09T09:34:58;51.30;;;36.42;;
40951;SDS011;26682;51.660;19.338;2023-01-09T09:36:45;59.42;;;38.38;;
40951;SDS011;26682;51.660;19.338;2023-01-09T09:38:36;49.90;;;35.13;;
40951;SDS011;26682;51.660;19.338;2023-01-09T09:40:32;51.00;;;36.28;;
40951;SDS011;26682;51.660;19.338;2023-01-09T09:46:50;50.45;;;35.25;;
40951;SDS011;26682;51.660;19.338;2023-01-09T09:49:05;50.55;;;33.45;;
40951;SDS011;26682;51.660;19.338;2023-01-09T09:53:31;47.17;;;33.45;;
40951;SDS011;26682;51.660;19.338;2023-01-09T09:55:30;47.33;;;33.75;;
40951;SDS011;26682;51.660;19.338;2023-01-09T09:57:28;46.38;;;33.55;;
40951;SDS011;26682;51.660;19.338;2023-01-09T09:59:25;50.38;;;34.63;;
40951;SDS011;26682;51.660;19.338;2023-01-09T10:02:03;51.20;;;33.90;;
40951;SDS011;26682;51.660;19.338;2023-01-09T10:03:51;45.95;;;31.38;;
40951;SDS011;26682;51.660;19.338;2023-01-09T10:05:42;44.53;;;31.10;;
40951;SDS011;26682;51.660;19.338;2023-01-09T10:07:35;46.58;;;31.23;;
40951;SDS011;26682;51.660;19.338;2023-01-09T10:11:34;45.67;;;31.20;;
40951;SDS011;26682;51.660;19.338;2023-01-09T10:13:25;45.60;;;31.42;;
40951;SDS011;26682;51.660;19.338;2023-01-09T10:15:40;47.75;;;32.33;;
40951;SDS011;26682;51.660;19.338;2023-01-09T10:17:59;44.50;;;30.95;;
40951;SDS011;26682;51.660;19.338;2023-01-09T10:20:09;43.22;;;31.05;;
40951;SDS011;26682;51.660;19.338;2023-01-09T10:26:45;48.88;;;31.77;;
40951;SDS011;26682;51.660;19.338;2023-01-09T10:28:52;47.75;;;32.13;;
40951;SDS011;26682;51.660;19.338;2023-01-09T10:30:43;48.13;;;32.90;;
40951;SDS011;26682;51.660;19.338;2023-01-09T10:33:01;46.63;;;32.15;;
40951;SDS011;26682;51.660;19.338;2023-01-09T10:34:56;46.50;;;32.05;;
40951;SDS011;26682;51.660;19.338;2023-01-09T10:39:09;44.08;;;31.10;;
40951;SDS011;26682;51.660;19.338;2023-01-09T10:45:39;45.83;;;31.40;;
40951;SDS011;26682;51.660;19.338;2023-01-09T10:47:31;48.97;;;32.80;;
40951;SDS011;26682;51.660;19.338;2023-01-09T10:49:21;46.22;;;32.70;;
40951;SDS011;26682;51.660;19.338;2023-01-09T10:51:14;44.15;;;32.00;;
40951;SDS011;26682;51.660;19.338;2023-01-09T10:53:27;47.03;;;33.58;;
40951;SDS011;26682;51.660;19.338;2023-01-09T10:55:21;45.83;;;32.45;;
40951;SDS011;26682;51.660;19.338;2023-01-09T10:59:22;44.00;;;31.33;;
40951;SDS011;26682;51.660;19.338;2023-01-09T11:01:09;46.35;;;31.25;;
40951;SDS011;26682;51.660;19.338;2023-01-09T11:02:57;42.08;;;31.40;;
40951;SDS011;26682;51.660;19.338;2023-01-09T11:04:45;45.55;;;32.05;;
40951;SDS011;26682;51.660;19.338;2023-01-09T11:08:42;48.67;;;31.92;;
40951;SDS011;26682;51.660;19.338;2023-01-09T11:10:45;46.60;;;32.83;;
40951;SDS011;26682;51.660;19.338;2023-01-09T11:13:11;42.58;;;31.45;;
40951;SDS011;26682;51.660;19.338;2023-01-09T11:17:02;41.70;;;30.73;;
40951;SDS011;26682;51.660;19.338;2023-01-09T11:18:53;44.65;;;30.75;;
40951;SDS011;26682;51.660;19.338;2023-01-09T11:20:43;47.22;;;31.15;;
40951;SDS011;26682;51.660;19.338;2023-01-09T11:24:52;41.15;;;29.88;;
40951;SDS011;26682;51.660;19.338;2023-01-09T11:26:50;40.97;;;29.80;;
40951;SDS011;26682;51.660;19.338;2023-01-09T11:28:39;43.97;;;29.50;;
40951;SDS011;26682;51.660;19.338;2023-01-09T11:30:26;40.35;;;29.83;;
40951;SDS011;26682;51.660;19.338;2023-01-09T11:32:20;37.08;;;26.80;;
40951;SDS011;26682;51.660;19.338;2023-01-09T11:34:16;36.75;;;27.25;;
40951;SDS011;26682;51.660;19.338;2023-01-09T11:36:06;41.10;;;28.27;;
40951;SDS011;26682;51.660;19.338;2023-01-09T11:39:58;37.65;;;26.58;;
40951;SDS011;26682;51.660;19.338;2023-01-09T11:41:47;35.45;;;25.70;;
40951;SDS011;26682;51.660;19.338;2023-01-09T11:43:43;37.85;;;26.80;;
40951;SDS011;26682;51.660;19.338;2023-01-09T11:45:33;38.83;;;26.73;;
40951;SDS011;26682;51.660;19.338;2023-01-09T11:47:37;37.58;;;26.58;;
40951;SDS011;26682;51.660;19.338;2023-01-09T11:49:27;32.80;;;24.92;;
40951;SDS011;26682;51.660;19.338;2023-01-09T11:51:17;33.33;;;24.08;;
40951;SDS011;26682;51.660;19.338;2023-01-09T11:54:59;31.27;;;22.40;;
40951;SDS011;26682;51.660;19.338;2023-01-09T11:56:52;31.92;;;22.85;;
40951;SDS011;26682;51.660;19.338;2023-01-09T11:58:41;30.52;;;22.27;;
40951;SDS011;26682;51.660;19.338;2023-01-09T12:00:29;35.67;;;24.58;;